sensor_id;sensor_type;location;lat;lon;timestamp;P1;durP1;ratioP1;P2;durP2;ratioP2
24813;SDS011;12904;50.088;11.414;2023-03-14T00:00:31;1.95;;;1.10;;
24813;SDS011;12904;50.088;11.414;2023-03-14T00:02:56;2.25;;;1.40;;
24813;SDS011;12904;50.088;11.414;2023-03-14T00:05:22;2.45;;;1.40;;
24813;SDS011;12904;50.088;11.414;2023-03-14T00:07:48;1.38;;;1.27;;
24813;SDS011;12904;50.088;11.414;2023-03-14T00:10:13;2.03;;;1.13;;
24813;SDS011;12904;50.088;11.414;2023-03-14T00:12:40;2.33;;;1.38;;
24813;SDS011;12904;50.088;11.414;2023-03-14T00:15:06;2.47;;;1.38;;
24813;SDS011;12904;50.088;11.414;2023-03-14T00:17:33;2.78;;;1.50;;
24813;SDS011;12904;50.088;11.414;2023-03-14T00:20:00;4.43;;;1.67;;
24813;SDS011;12904;50.088;11.414;2023-03-14T00:22:32;2.45;;;1.40;;
24813;SDS011;12904;50.088;11.414;2023-03-14T00:24:59;1.67;;;1.20;;
24813;SDS011;12904;50.088;11.414;2023-03-14T00:27:25;2.05;;;1.35;;
24813;SDS011;12904;50.088;11.414;2023-03-14T00:29:51;2.92;;;1.40;;
24813;SDS011;12904;50.088;11.414;2023-03-14T00:32:16;1.45;;;1.10;;
24813;SDS011;12904;50.088;11.414;2023-03-14T00:34:42;2.13;;;1.20;;
24813;SDS011;12904;50.088;11.414;2023-03-14T00:37:08;1.80;;;1.13;;
24813;SDS011;12904;50.088;11.414;2023-03-14T00:39:33;1.42;;;1.10;;
24813;SDS011;12904;50.088;11.414;2023-03-14T00:41:59;2.60;;;1.30;;
24813;SDS011;12904;50.088;11.414;2023-03-14T00:44:24;1.20;;;1.10;;
24813;SDS011;12904;50.088;11.414;2023-03-14T00:46:50;2.55;;;1.35;;
24813;SDS011;12904;50.088;11.414;2023-03-14T00:49:16;3.28;;;1.25;;
24813;SDS011;12904;50.088;11.414;2023-03-14T00:51:41;1.65;;;1.13;;
24813;SDS011;12904;50.088;11.414;2023-03-14T00:54:07;1.35;;;1.20;;
24813;SDS011;12904;50.088;11.414;2023-03-14T00:56:33;4.70;;;1.30;;
24813;SDS011;12904;50.088;11.414;2023-03-14T00:58:58;1.80;;;1.40;;
24813;SDS011;12904;50.088;11.414;2023-03-14T01:01:24;3.78;;;1.95;;
24813;SDS011;12904;50.088;11.414;2023-03-14T01:03:53;3.05;;;1.20;;
24813;SDS011;12904;50.088;11.414;2023-03-14T01:06:21;1.30;;;1.02;;
24813;SDS011;12904;50.088;11.414;2023-03-14T01:08:49;2.03;;;1.20;;
24813;SDS011;12904;50.088;11.414;2023-03-14T01:11:17;2.38;;;1.10;;
24813;SDS011;12904;50.088;11.414;2023-03-14T01:13:44;2.25;;;1.30;;
24813;SDS011;12904;50.088;11.414;2023-03-14T01:16:10;1.73;;;1.23;;
24813;SDS011;12904;50.088;11.414;2023-03-14T01:18:37;3.28;;;1.70;;
24813;SDS011;12904;50.088;11.414;2023-03-14T01:21:07;6.45;;;3.00;;
24813;SDS011;12904;50.088;11.414;2023-03-14T01:23:42;6.82;;;3.58;;
24813;SDS011;12904;50.088;11.414;2023-03-14T01:26:12;5.97;;;2.53;;
24813;SDS011;12904;50.088;11.414;2023-03-14T01:31:06;4.25;;;2.05;;
24813;SDS011;12904;50.088;11.414;2023-03-14T01:33:34;3.45;;;2.05;;
24813;SDS011;12904;50.088;11.414;2023-03-14T01:36:00;11.38;;;4.80;;
24813;SDS011;12904;50.088;11.414;2023-03-14T01:38:29;11.07;;;5.30;;
24813;SDS011;12904;50.088;11.414;2023-03-14T01:40:55;9.63;;;3.75;;
24813;SDS011;12904;50.088;11.414;2023-03-14T01:43:21;6.18;;;2.85;;
24813;SDS011;12904;50.088;11.414;2023-03-14T01:48:54;1.20;;;1.00;;
24813;SDS011;12904;50.088;11.414;2023-03-14T01:51:23;1.00;;;0.80;;
24813;SDS011;12904;50.088;11.414;2023-03-14T01:54:19;2.70;;;1.35;;
24813;SDS011;12904;50.088;11.414;2023-03-14T01:56:52;2.15;;;1.20;;
24813;SDS011;12904;50.088;11.414;2023-03-14T01:59:21;0.85;;;0.73;;
24813;SDS011;12904;50.088;11.414;2023-03-14T02:01:48;0.40;;;0.40;;
24813;SDS011;12904;50.088;11.414;2023-03-14T02:04:16;0.47;;;0.47;;
24813;SDS011;12904;50.088;11.414;2023-03-14T02:07:05;1.17;;;0.40;;
24813;SDS011;12904;50.088;11.414;2023-03-14T02:09:38;1.02;;;0.45;;
24813;SDS011;12904;50.088;11.414;2023-03-14T02:12:05;0.52;;;0.47;;
24813;SDS011;12904;50.088;11.414;2023-03-14T02:14:33;0.65;;;0.43;;
24813;SDS011;12904;50.088;11.414;2023-03-14T02:17:01;0.50;;;0.50;;
24813;SDS011;12904;50.088;11.414;2023-03-14T02:19:53;0.90;;;0.45;;
24813;SDS011;12904;50.088;11.414;2023-03-14T02:22:15;0.30;;;0.30;;
24813;SDS011;12904;50.088;11.414;2023-03-14T02:27:28;0.40;;;0.40;;
24813;SDS011;12904;50.088;11.414;2023-03-14T02:29:55;0.40;;;0.40;;
24813;SDS011;12904;50.088;11.414;2023-03-14T02:32:27;0.30;;;0.30;;
24813;SDS011;12904;50.088;11.414;2023-03-14T02:34:58;0.95;;;0.40;;
24813;SDS011;12904;50.088;11.414;2023-03-14T02:37:30;0.93;;;0.40;;
24813;SDS011;12904;50.088;11.414;2023-03-14T02:40:01;0.40;;;0.40;;
24813;SDS011;12904;50.088;11.414;2023-03-14T02:42:29;0.52;;;0.50;;
24813;SDS011;12904;50.088;11.414;2023-03-14T02:47:33;0.68;;;0.40;;
24813;SDS011;12904;50.088;11.414;2023-03-14T02:50:05;1.75;;;0.60;;
24813;SDS011;12904;50.088;11.414;2023-03-14T02:52:34;0.77;;;0.50;;
24813;SDS011;12904;50.088;11.414;2023-03-14T02:55:00;1.48;;;0.50;;
24813;SDS011;12904;50.088;11.414;2023-03-14T02:57:26;0.50;;;0.50;;
24813;SDS011;12904;50.088;11.414;2023-03-14T02:59:51;1.10;;;0.50;;
24813;SDS011;12904;50.088;11.414;2023-03-14T03:02:17;0.52;;;0.52;;
24813;SDS011;12904;50.088;11.414;2023-03-14T03:04:43;1.02;;;0.50;;
24813;SDS011;12904;50.088;11.414;2023-03-14T03:07:08;0.45;;;0.40;;
24813;SDS011;12904;50.088;11.414;2023-03-14T03:09:34;0.65;;;0.60;;
24813;SDS011;12904;50.088;11.414;2023-03-14T03:12:00;0.85;;;0.50;;
24813;SDS011;12904;50.088;11.414;2023-03-14T03:14:25;2.60;;;0.45;;
24813;SDS011;12904;50.088;11.414;2023-03-14T03:16:51;4.35;;;0.60;;
24813;SDS011;12904;50.088;11.414;2023-03-14T03:19:16;2.30;;;0.68;;
24813;SDS011;12904;50.088;11.414;2023-03-14T03:21:43;0.55;;;0.50;;
24813;SDS011;12904;50.088;11.414;2023-03-14T03:24:09;1.00;;;0.60;;
24813;SDS011;12904;50.088;11.414;2023-03-14T03:26:35;1.08;;;0.70;;
24813;SDS011;12904;50.088;11.414;2023-03-14T03:29:01;4.03;;;0.80;;
24813;SDS011;12904;50.088;11.414;2023-03-14T03:31:27;1.00;;;0.70;;
24813;SDS011;12904;50.088;11.414;2023-03-14T03:33:53;0.98;;;0.70;;
24813;SDS011;12904;50.088;11.414;2023-03-14T03:36:22;1.17;;;0.65;;
24813;SDS011;12904;50.088;11.414;2023-03-14T03:38:49;0.70;;;0.70;;
24813;SDS011;12904;50.088;11.414;2023-03-14T03:41:14;0.95;;;0.63;;
24813;SDS011;12904;50.088;11.414;2023-03-14T03:43:40;0.55;;;0.50;;
24813;SDS011;12904;50.088;11.414;2023-03-14T03:46:06;1.70;;;0.57;;
24813;SDS011;12904;50.088;11.414;2023-03-14T03:48:32;3.03;;;0.85;;
24813;SDS011;12904;50.088;11.414;2023-03-14T03:50:58;1.83;;;0.77;;
24813;SDS011;12904;50.088;11.414;2023-03-14T03:53:23;0.80;;;0.75;;
24813;SDS011;12904;50.088;11.414;2023-03-14T03:55:49;6.07;;;0.98;;
24813;SDS011;12904;50.088;11.414;2023-03-14T03:58:15;1.35;;;0.98;;
24813;SDS011;12904;50.088;11.414;2023-03-14T04:00:40;1.48;;;0.90;;
24813;SDS011;12904;50.088;11.414;2023-03-14T04:03:06;1.08;;;0.60;;
24813;SDS011;12904;50.088;11.414;2023-03-14T04:05:32;1.95;;;0.70;;
24813;SDS011;12904;50.088;11.414;2023-03-14T04:07:59;0.88;;;0.80;;
24813;SDS011;12904;50.088;11.414;2023-03-14T04:10:25;1.80;;;0.82;;
24813;SDS011;12904;50.088;11.414;2023-03-14T04:12:50;1.85;;;0.80;;
24813;SDS011;12904;50.088;11.414;2023-03-14T04:15:17;1.85;;;0.90;;
24813;SDS011;12904;50.088;11.414;2023-03-14T04:17:43;0.80;;;0.60;;
24813;SDS011;12904;50.088;11.414;2023-03-14T04:20:09;4.85;;;0.90;;
24813;SDS011;12904;50.088;11.414;2023-03-14T04:22:38;2.85;;;0.90;;
24813;SDS011;12904;50.088;11.414;2023-03-14T04:25:04;1.08;;;0.88;;
24813;SDS011;12904;50.088;11.414;2023-03-14T04:27:30;2.03;;;1.10;;
24813;SDS011;12904;50.088;11.414;2023-03-14T04:29:56;1.58;;;1.20;;
24813;SDS011;12904;50.088;11.414;2023-03-14T04:32:21;3.15;;;1.00;;
24813;SDS011;12904;50.088;11.414;2023-03-14T04:34:47;1.58;;;0.85;;
24813;SDS011;12904;50.088;11.414;2023-03-14T04:37:13;1.42;;;0.95;;
24813;SDS011;12904;50.088;11.414;2023-03-14T04:39:38;1.90;;;1.02;;
24813;SDS011;12904;50.088;11.414;2023-03-14T04:42:04;1.13;;;0.90;;
24813;SDS011;12904;50.088;11.414;2023-03-14T04:44:30;1.13;;;0.70;;
24813;SDS011;12904;50.088;11.414;2023-03-14T04:46:56;1.40;;;0.80;;
24813;SDS011;12904;50.088;11.414;2023-03-14T04:49:22;5.60;;;0.90;;
24813;SDS011;12904;50.088;11.414;2023-03-14T04:51:47;1.10;;;0.73;;
24813;SDS011;12904;50.088;11.414;2023-03-14T04:54:15;1.85;;;0.80;;
24813;SDS011;12904;50.088;11.414;2023-03-14T04:56:41;1.10;;;1.00;;
24813;SDS011;12904;50.088;11.414;2023-03-14T04:59:07;1.17;;;0.70;;
24813;SDS011;12904;50.088;11.414;2023-03-14T05:01:33;3.58;;;0.70;;
24813;SDS011;12904;50.088;11.414;2023-03-14T05:03:59;3.13;;;0.80;;
24813;SDS011;12904;50.088;11.414;2023-03-14T05:06:25;0.60;;;0.60;;
24813;SDS011;12904;50.088;11.414;2023-03-14T05:08:51;1.30;;;0.77;;
24813;SDS011;12904;50.088;11.414;2023-03-14T05:11:17;1.13;;;0.70;;
24813;SDS011;12904;50.088;11.414;2023-03-14T05:13:43;0.90;;;0.70;;
24813;SDS011;12904;50.088;11.414;2023-03-14T05:16:09;1.10;;;0.82;;
24813;SDS011;12904;50.088;11.414;2023-03-14T05:18:36;1.80;;;0.70;;
24813;SDS011;12904;50.088;11.414;2023-03-14T05:21:02;3.75;;;0.90;;
24813;SDS011;12904;50.088;11.414;2023-03-14T05:23:28;1.38;;;0.90;;
24813;SDS011;12904;50.088;11.414;2023-03-14T05:25:54;1.70;;;0.85;;
24813;SDS011;12904;50.088;11.414;2023-03-14T05:28:19;1.02;;;0.80;;
24813;SDS011;12904;50.088;11.414;2023-03-14T05:30:45;1.40;;;0.70;;
24813;SDS011;12904;50.088;11.414;2023-03-14T05:33:11;1.33;;;0.60;;
24813;SDS011;12904;50.088;11.414;2023-03-14T05:35:38;0.70;;;0.70;;
24813;SDS011;12904;50.088;11.414;2023-03-14T05:38:03;0.73;;;0.73;;
24813;SDS011;12904;50.088;11.414;2023-03-14T05:40:29;0.98;;;0.70;;
24813;SDS011;12904;50.088;11.414;2023-03-14T05:42:55;2.00;;;0.75;;
24813;SDS011;12904;50.088;11.414;2023-03-14T05:45:20;1.55;;;0.70;;
24813;SDS011;12904;50.088;11.414;2023-03-14T05:47:46;2.53;;;0.70;;
24813;SDS011;12904;50.088;11.414;2023-03-14T05:50:12;1.30;;;0.60;;
24813;SDS011;12904;50.088;11.414;2023-03-14T05:52:37;3.75;;;0.65;;
24813;SDS011;12904;50.088;11.414;2023-03-14T05:55:03;4.05;;;0.70;;
24813;SDS011;12904;50.088;11.414;2023-03-14T05:57:29;0.60;;;0.60;;
24813;SDS011;12904;50.088;11.414;2023-03-14T05:59:55;1.00;;;0.60;;
24813;SDS011;12904;50.088;11.414;2023-03-14T06:02:20;0.80;;;0.80;;
24813;SDS011;12904;50.088;11.414;2023-03-14T06:04:46;1.58;;;0.70;;
24813;SDS011;12904;50.088;11.414;2023-03-14T06:07:11;1.10;;;0.60;;
24813;SDS011;12904;50.088;11.414;2023-03-14T06:09:37;0.65;;;0.65;;
24813;SDS011;12904;50.088;11.414;2023-03-14T06:12:04;1.67;;;0.70;;
24813;SDS011;12904;50.088;11.414;2023-03-14T06:14:30;0.73;;;0.60;;
24813;SDS011;12904;50.088;11.414;2023-03-14T06:16:56;1.77;;;0.70;;
24813;SDS011;12904;50.088;11.414;2023-03-14T06:19:21;1.40;;;0.55;;
24813;SDS011;12904;50.088;11.414;2023-03-14T06:21:48;1.33;;;0.63;;
24813;SDS011;12904;50.088;11.414;2023-03-14T06:24:14;1.38;;;0.50;;
24813;SDS011;12904;50.088;11.414;2023-03-14T06:26:39;0.75;;;0.60;;
24813;SDS011;12904;50.088;11.414;2023-03-14T06:29:05;1.52;;;0.60;;
24813;SDS011;12904;50.088;11.414;2023-03-14T06:31:31;6.47;;;0.70;;
24813;SDS011;12904;50.088;11.414;2023-03-14T06:33:57;0.70;;;0.50;;
24813;SDS011;12904;50.088;11.414;2023-03-14T06:36:23;0.82;;;0.60;;
24813;SDS011;12904;50.088;11.414;2023-03-14T06:38:49;1.50;;;0.80;;
24813;SDS011;12904;50.088;11.414;2023-03-14T06:41:15;1.65;;;0.60;;
24813;SDS011;12904;50.088;11.414;2023-03-14T06:43:40;1.00;;;0.70;;
24813;SDS011;12904;50.088;11.414;2023-03-14T06:46:06;1.63;;;0.75;;
24813;SDS011;12904;50.088;11.414;2023-03-14T06:48:32;1.55;;;0.70;;
24813;SDS011;12904;50.088;11.414;2023-03-14T06:50:57;1.08;;;0.70;;
24813;SDS011;12904;50.088;11.414;2023-03-14T06:53:23;2.17;;;0.80;;
24813;SDS011;12904;50.088;11.414;2023-03-14T06:55:49;1.98;;;0.65;;
24813;SDS011;12904;50.088;11.414;2023-03-14T06:58:15;1.17;;;0.70;;
24813;SDS011;12904;50.088;11.414;2023-03-14T07:00:40;1.70;;;0.60;;
24813;SDS011;12904;50.088;11.414;2023-03-14T07:03:06;2.00;;;0.70;;
24813;SDS011;12904;50.088;11.414;2023-03-14T07:05:33;2.80;;;1.08;;
24813;SDS011;12904;50.088;11.414;2023-03-14T07:07:59;3.33;;;0.70;;
24813;SDS011;12904;50.088;11.414;2023-03-14T07:10:25;0.85;;;0.65;;
24813;SDS011;12904;50.088;11.414;2023-03-14T07:12:50;0.93;;;0.50;;
24813;SDS011;12904;50.088;11.414;2023-03-14T07:15:17;1.85;;;0.50;;
24813;SDS011;12904;50.088;11.414;2023-03-14T07:17:43;0.50;;;0.50;;
24813;SDS011;12904;50.088;11.414;2023-03-14T07:20:09;0.98;;;0.65;;
24813;SDS011;12904;50.088;11.414;2023-03-14T07:22:35;1.27;;;0.60;;
24813;SDS011;12904;50.088;11.414;2023-03-14T07:25:00;1.80;;;0.65;;
24813;SDS011;12904;50.088;11.414;2023-03-14T07:27:26;1.58;;;0.63;;
24813;SDS011;12904;50.088;11.414;2023-03-14T07:29:52;8.20;;;0.50;;
24813;SDS011;12904;50.088;11.414;2023-03-14T07:32:17;2.47;;;1.20;;
24813;SDS011;12904;50.088;11.414;2023-03-14T07:34:43;2.05;;;0.60;;
24813;SDS011;12904;50.088;11.414;2023-03-14T07:37:09;1.65;;;0.50;;
24813;SDS011;12904;50.088;11.414;2023-03-14T07:39:35;1.95;;;0.90;;
24813;SDS011;12904;50.088;11.414;2023-03-14T07:42:01;0.98;;;0.63;;
24813;SDS011;12904;50.088;11.414;2023-03-14T07:44:26;1.48;;;0.60;;
24813;SDS011;12904;50.088;11.414;2023-03-14T07:46:52;1.70;;;0.57;;
24813;SDS011;12904;50.088;11.414;2023-03-14T07:49:18;1.48;;;0.60;;
24813;SDS011;12904;50.088;11.414;2023-03-14T07:51:43;0.80;;;0.70;;
24813;SDS011;12904;50.088;11.414;2023-03-14T07:54:12;1.45;;;0.45;;
24813;SDS011;12904;50.088;11.414;2023-03-14T07:56:37;0.82;;;0.60;;
24813;SDS011;12904;50.088;11.414;2023-03-14T07:59:03;0.52;;;0.40;;
24813;SDS011;12904;50.088;11.414;2023-03-14T08:01:28;0.80;;;0.40;;
24813;SDS011;12904;50.088;11.414;2023-03-14T08:03:54;0.88;;;0.40;;
24813;SDS011;12904;50.088;11.414;2023-03-14T08:06:20;1.23;;;0.50;;
24813;SDS011;12904;50.088;11.414;2023-03-14T08:08:45;2.55;;;0.40;;
24813;SDS011;12904;50.088;11.414;2023-03-14T08:11:11;9.63;;;0.60;;
24813;SDS011;12904;50.088;11.414;2023-03-14T08:13:37;0.73;;;0.60;;
24813;SDS011;12904;50.088;11.414;2023-03-14T08:16:03;2.38;;;0.60;;
24813;SDS011;12904;50.088;11.414;2023-03-14T08:18:29;2.05;;;0.60;;
24813;SDS011;12904;50.088;11.414;2023-03-14T08:20:55;0.52;;;0.40;;
24813;SDS011;12904;50.088;11.414;2023-03-14T08:23:21;1.20;;;0.40;;
24813;SDS011;12904;50.088;11.414;2023-03-14T08:25:50;1.92;;;0.60;;
24813;SDS011;12904;50.088;11.414;2023-03-14T08:28:16;1.85;;;0.60;;
24813;SDS011;12904;50.088;11.414;2023-03-14T08:30:42;3.78;;;0.63;;
24813;SDS011;12904;50.088;11.414;2023-03-14T08:33:08;0.63;;;0.40;;
24813;SDS011;12904;50.088;11.414;2023-03-14T08:35:34;2.05;;;0.50;;
24813;SDS011;12904;50.088;11.414;2023-03-14T08:37:59;1.02;;;0.57;;
24813;SDS011;12904;50.088;11.414;2023-03-14T08:40:26;0.60;;;0.40;;
24813;SDS011;12904;50.088;11.414;2023-03-14T08:42:51;3.78;;;1.05;;
24813;SDS011;12904;50.088;11.414;2023-03-14T08:45:17;1.15;;;0.57;;
24813;SDS011;12904;50.088;11.414;2023-03-14T08:47:44;2.33;;;0.60;;
24813;SDS011;12904;50.088;11.414;2023-03-14T08:50:10;2.28;;;0.60;;
24813;SDS011;12904;50.088;11.414;2023-03-14T08:52:36;1.75;;;0.40;;
24813;SDS011;12904;50.088;11.414;2023-03-14T08:55:05;4.22;;;1.15;;
24813;SDS011;12904;50.088;11.414;2023-03-14T08:57:32;1.00;;;0.47;;
24813;SDS011;12904;50.088;11.414;2023-03-14T08:59:57;1.50;;;0.57;;
24813;SDS011;12904;50.088;11.414;2023-03-14T09:02:23;1.65;;;0.70;;
24813;SDS011;12904;50.088;11.414;2023-03-14T09:04:50;1.35;;;0.80;;
24813;SDS011;12904;50.088;11.414;2023-03-14T09:07:17;5.53;;;0.75;;
24813;SDS011;12904;50.088;11.414;2023-03-14T09:09:43;0.80;;;0.50;;
24813;SDS011;12904;50.088;11.414;2023-03-14T09:12:09;2.13;;;0.50;;
24813;SDS011;12904;50.088;11.414;2023-03-14T09:14:34;1.70;;;0.65;;
24813;SDS011;12904;50.088;11.414;2023-03-14T09:17:00;2.10;;;0.57;;
24813;SDS011;12904;50.088;11.414;2023-03-14T09:19:26;2.00;;;1.20;;
24813;SDS011;12904;50.088;11.414;2023-03-14T09:21:51;2.85;;;0.57;;
24813;SDS011;12904;50.088;11.414;2023-03-14T09:24:17;1.98;;;0.75;;
24813;SDS011;12904;50.088;11.414;2023-03-14T09:26:43;1.13;;;0.50;;
24813;SDS011;12904;50.088;11.414;2023-03-14T09:29:09;1.25;;;0.50;;
24813;SDS011;12904;50.088;11.414;2023-03-14T09:31:34;2.20;;;0.40;;
24813;SDS011;12904;50.088;11.414;2023-03-14T09:34:00;0.40;;;0.40;;
24813;SDS011;12904;50.088;11.414;2023-03-14T09:36:26;1.15;;;0.52;;
24813;SDS011;12904;50.088;11.414;2023-03-14T09:38:52;1.13;;;0.40;;
24813;SDS011;12904;50.088;11.414;2023-03-14T09:43:46;0.57;;;0.50;;
24813;SDS011;12904;50.088;11.414;2023-03-14T09:46:16;3.30;;;0.50;;
24813;SDS011;12904;50.088;11.414;2023-03-14T09:48:42;1.70;;;0.40;;
24813;SDS011;12904;50.088;11.414;2023-03-14T09:51:16;0.82;;;0.50;;
24813;SDS011;12904;50.088;11.414;2023-03-14T09:53:46;1.48;;;0.68;;
24813;SDS011;12904;50.088;11.414;2023-03-14T09:56:18;1.75;;;0.55;;
24813;SDS011;12904;50.088;11.414;2023-03-14T09:58:53;1.60;;;0.40;;
24813;SDS011;12904;50.088;11.414;2023-03-14T10:01:23;0.87;;;0.47;;
24813;SDS011;12904;50.088;11.414;2023-03-14T10:03:53;1.45;;;0.40;;
24813;SDS011;12904;50.088;11.414;2023-03-14T10:06:22;1.65;;;0.43;;
24813;SDS011;12904;50.088;11.414;2023-03-14T10:08:50;2.08;;;0.50;;
24813;SDS011;12904;50.088;11.414;2023-03-14T10:11:18;3.42;;;0.40;;
24813;SDS011;12904;50.088;11.414;2023-03-14T10:16:29;1.33;;;0.60;;
24813;SDS011;12904;50.088;11.414;2023-03-14T10:19:03;1.75;;;0.68;;
24813;SDS011;12904;50.088;11.414;2023-03-14T10:21:35;2.45;;;0.73;;
24813;SDS011;12904;50.088;11.414;2023-03-14T10:24:22;1.30;;;0.57;;
24813;SDS011;12904;50.088;11.414;2023-03-14T10:26:55;1.65;;;0.63;;
24813;SDS011;12904;50.088;11.414;2023-03-14T10:29:26;2.80;;;0.50;;
24813;SDS011;12904;50.088;11.414;2023-03-14T10:32:02;4.15;;;0.70;;
24813;SDS011;12904;50.088;11.414;2023-03-14T10:34:36;1.40;;;0.55;;
24813;SDS011;12904;50.088;11.414;2023-03-14T10:37:24;3.60;;;0.80;;
24813;SDS011;12904;50.088;11.414;2023-03-14T10:39:55;2.35;;;0.70;;
24813;SDS011;12904;50.088;11.414;2023-03-14T10:42:30;2.60;;;0.88;;
24813;SDS011;12904;50.088;11.414;2023-03-14T10:45:06;1.42;;;0.60;;
24813;SDS011;12904;50.088;11.414;2023-03-14T10:47:51;1.70;;;0.57;;
24813;SDS011;12904;50.088;11.414;2023-03-14T10:52:55;2.40;;;1.10;;
24813;SDS011;12904;50.088;11.414;2023-03-14T10:55:24;1.38;;;0.65;;
24813;SDS011;12904;50.088;11.414;2023-03-14T10:57:52;1.80;;;0.70;;
24813;SDS011;12904;50.088;11.414;2023-03-14T11:00:22;3.15;;;1.10;;
24813;SDS011;12904;50.088;11.414;2023-03-14T11:05:28;3.75;;;1.90;;
24813;SDS011;12904;50.088;11.414;2023-03-14T11:08:23;2.88;;;1.17;;
24813;SDS011;12904;50.088;11.414;2023-03-14T11:10:51;5.13;;;1.40;;
24813;SDS011;12904;50.088;11.414;2023-03-14T11:24:21;1.77;;;0.80;;
24813;SDS011;12904;50.088;11.414;2023-03-14T11:35:17;1.35;;;0.60;;
24813;SDS011;12904;50.088;11.414;2023-03-14T11:38:37;2.33;;;0.70;;
24813;SDS011;12904;50.088;11.414;2023-03-14T11:40:45;4.90;;;0.80;;
24813;SDS011;12904;50.088;11.414;2023-03-14T11:45:39;3.40;;;0.60;;
24813;SDS011;12904;50.088;11.414;2023-03-14T11:48:16;2.15;;;0.50;;
24813;SDS011;12904;50.088;11.414;2023-03-14T11:50:43;2.13;;;0.50;;
24813;SDS011;12904;50.088;11.414;2023-03-14T11:53:18;2.50;;;1.02;;
24813;SDS011;12904;50.088;11.414;2023-03-14T11:55:50;1.80;;;0.70;;
24813;SDS011;12904;50.088;11.414;2023-03-14T11:58:29;1.40;;;0.65;;
24813;SDS011;12904;50.088;11.414;2023-03-14T12:01:00;1.00;;;0.60;;
24813;SDS011;12904;50.088;11.414;2023-03-14T12:09:15;1.40;;;0.68;;
24813;SDS011;12904;50.088;11.414;2023-03-14T12:11:54;5.70;;;0.65;;
24813;SDS011;12904;50.088;11.414;2023-03-14T12:14:33;2.20;;;0.60;;
24813;SDS011;12904;50.088;11.414;2023-03-14T12:17:05;1.20;;;0.70;;
24813;SDS011;12904;50.088;11.414;2023-03-14T12:19:42;2.17;;;0.50;;
24813;SDS011;12904;50.088;11.414;2023-03-14T12:22:26;0.80;;;0.40;;
24813;SDS011;12904;50.088;11.414;2023-03-14T12:30:40;2.15;;;0.60;;
24813;SDS011;12904;50.088;11.414;2023-03-14T12:35:46;0.88;;;0.55;;
24813;SDS011;12904;50.088;11.414;2023-03-14T12:43:45;1.83;;;0.40;;
24813;SDS011;12904;50.088;11.414;2023-03-14T12:48:43;0.50;;;0.20;;
24813;SDS011;12904;50.088;11.414;2023-03-14T12:51:15;2.17;;;0.93;;
24813;SDS011;12904;50.088;11.414;2023-03-14T13:07:01;1.60;;;0.60;;
24813;SDS011;12904;50.088;11.414;2023-03-14T13:11:54;6.88;;;0.77;;
24813;SDS011;12904;50.088;11.414;2023-03-14T13:14:21;8.20;;;1.00;;
24813;SDS011;12904;50.088;11.414;2023-03-14T13:16:48;1.67;;;0.43;;
24813;SDS011;12904;50.088;11.414;2023-03-14T13:19:16;0.45;;;0.30;;
24813;SDS011;12904;50.088;11.414;2023-03-14T13:21:46;1.40;;;0.30;;
24813;SDS011;12904;50.088;11.414;2023-03-14T13:24:21;1.17;;;0.40;;
24813;SDS011;12904;50.088;11.414;2023-03-14T13:26:47;2.28;;;0.47;;
24813;SDS011;12904;50.088;11.414;2023-03-14T13:29:19;8.63;;;0.88;;
24813;SDS011;12904;50.088;11.414;2023-03-14T13:31:48;2.22;;;0.70;;
24813;SDS011;12904;50.088;11.414;2023-03-14T13:34:19;2.83;;;0.38;;
24813;SDS011;12904;50.088;11.414;2023-03-14T13:36:45;4.95;;;0.40;;
24813;SDS011;12904;50.088;11.414;2023-03-14T13:39:16;0.50;;;0.30;;
24813;SDS011;12904;50.088;11.414;2023-03-14T13:41:53;4.03;;;0.65;;
24813;SDS011;12904;50.088;11.414;2023-03-14T13:46:49;3.25;;;0.70;;
24813;SDS011;12904;50.088;11.414;2023-03-14T13:49:24;2.00;;;0.77;;
24813;SDS011;12904;50.088;11.414;2023-03-14T13:51:51;0.90;;;0.30;;
24813;SDS011;12904;50.088;11.414;2023-03-14T13:54:18;6.43;;;0.60;;
24813;SDS011;12904;50.088;11.414;2023-03-14T13:56:45;1.35;;;0.20;;
24813;SDS011;12904;50.088;11.414;2023-03-14T13:59:24;3.30;;;0.38;;
24813;SDS011;12904;50.088;11.414;2023-03-14T14:01:51;4.07;;;0.30;;
24813;SDS011;12904;50.088;11.414;2023-03-14T14:04:19;0.90;;;0.30;;
24813;SDS011;12904;50.088;11.414;2023-03-14T14:06:47;0.52;;;0.30;;
24813;SDS011;12904;50.088;11.414;2023-03-14T14:09:18;2.90;;;0.40;;
24813;SDS011;12904;50.088;11.414;2023-03-14T14:11:52;0.65;;;0.30;;
24813;SDS011;12904;50.088;11.414;2023-03-14T14:14:34;0.75;;;0.30;;
24813;SDS011;12904;50.088;11.414;2023-03-14T14:17:08;0.40;;;0.30;;
24813;SDS011;12904;50.088;11.414;2023-03-14T14:19:37;0.45;;;0.40;;
24813;SDS011;12904;50.088;11.414;2023-03-14T14:22:04;0.30;;;0.30;;
24813;SDS011;12904;50.088;11.414;2023-03-14T14:24:32;0.55;;;0.40;;
24813;SDS011;12904;50.088;11.414;2023-03-14T14:26:59;3.95;;;1.02;;
24813;SDS011;12904;50.088;11.414;2023-03-14T14:29:31;0.45;;;0.40;;
24813;SDS011;12904;50.088;11.414;2023-03-14T14:34:43;0.73;;;0.40;;
24813;SDS011;12904;50.088;11.414;2023-03-14T14:37:22;0.20;;;0.20;;
24813;SDS011;12904;50.088;11.414;2023-03-14T14:39:50;0.50;;;0.30;;
24813;SDS011;12904;50.088;11.414;2023-03-14T14:42:18;0.40;;;0.30;;
24813;SDS011;12904;50.088;11.414;2023-03-14T14:44:49;0.40;;;0.30;;
24813;SDS011;12904;50.088;11.414;2023-03-14T14:47:18;0.45;;;0.30;;
24813;SDS011;12904;50.088;11.414;2023-03-14T14:49:47;0.43;;;0.30;;
24813;SDS011;12904;50.088;11.414;2023-03-14T14:54:45;3.25;;;0.32;;
24813;SDS011;12904;50.088;11.414;2023-03-14T14:57:23;0.85;;;0.40;;
24813;SDS011;12904;50.088;11.414;2023-03-14T14:59:50;0.50;;;0.50;;
24813;SDS011;12904;50.088;11.414;2023-03-14T15:05:12;1.23;;;0.38;;
24813;SDS011;12904;50.088;11.414;2023-03-14T15:07:39;1.65;;;0.90;;
24813;SDS011;12904;50.088;11.414;2023-03-14T15:10:05;0.50;;;0.50;;
24813;SDS011;12904;50.088;11.414;2023-03-14T15:12:34;0.40;;;0.40;;
24813;SDS011;12904;50.088;11.414;2023-03-14T15:15:00;2.25;;;2.13;;
24813;SDS011;12904;50.088;11.414;2023-03-14T15:17:25;1.10;;;1.10;;
24813;SDS011;12904;50.088;11.414;2023-03-14T15:19:51;0.50;;;0.50;;
24813;SDS011;12904;50.088;11.414;2023-03-14T15:22:17;0.65;;;0.55;;
24813;SDS011;12904;50.088;11.414;2023-03-14T15:24:43;0.65;;;0.65;;
24813;SDS011;12904;50.088;11.414;2023-03-14T15:27:13;0.32;;;0.28;;
24813;SDS011;12904;50.088;11.414;2023-03-14T15:29:40;0.50;;;0.50;;
24813;SDS011;12904;50.088;11.414;2023-03-14T15:32:08;0.60;;;0.50;;
24813;SDS011;12904;50.088;11.414;2023-03-14T15:34:36;0.43;;;0.40;;
24813;SDS011;12904;50.088;11.414;2023-03-14T15:37:02;0.82;;;0.30;;
24813;SDS011;12904;50.088;11.414;2023-03-14T15:39:34;0.30;;;0.30;;
24813;SDS011;12904;50.088;11.414;2023-03-14T15:42:00;0.30;;;0.30;;
24813;SDS011;12904;50.088;11.414;2023-03-14T15:44:26;0.80;;;0.40;;
24813;SDS011;12904;50.088;11.414;2023-03-14T15:46:52;0.52;;;0.40;;
24813;SDS011;12904;50.088;11.414;2023-03-14T15:49:18;0.60;;;0.60;;
24813;SDS011;12904;50.088;11.414;2023-03-14T15:51:43;0.45;;;0.45;;
24813;SDS011;12904;50.088;11.414;2023-03-14T15:54:09;0.43;;;0.32;;
24813;SDS011;12904;50.088;11.414;2023-03-14T15:56:34;0.77;;;0.60;;
24813;SDS011;12904;50.088;11.414;2023-03-14T15:59:00;0.40;;;0.40;;
24813;SDS011;12904;50.088;11.414;2023-03-14T16:01:26;0.40;;;0.40;;
24813;SDS011;12904;50.088;11.414;2023-03-14T16:03:52;0.40;;;0.40;;
24813;SDS011;12904;50.088;11.414;2023-03-14T16:06:18;0.40;;;0.40;;
24813;SDS011;12904;50.088;11.414;2023-03-14T16:08:44;0.63;;;0.50;;